sensor_id;sensor_type;location;lat;lon;timestamp;P1;durP1;ratioP1;P2;durP2;ratioP2
18659;SDS011;9459;50.254;19.014;2023-02-04T00:00:39;19.88;;;7.32;;
18659;SDS011;9459;50.254;19.014;2023-02-04T00:03:27;15.25;;;5.93;;
18659;SDS011;9459;50.254;19.014;2023-02-04T00:05:55;12.10;;;5.63;;
18659;SDS011;9459;50.254;19.014;2023-02-04T00:08:24;19.42;;;5.90;;
18659;SDS011;9459;50.254;19.014;2023-02-04T00:10:52;11.35;;;4.75;;
18659;SDS011;9459;50.254;19.014;2023-02-04T00:13:23;7.03;;;3.72;;
18659;SDS011;9459;50.254;19.014;2023-02-04T00:15:52;9.15;;;3.83;;
18659;SDS011;9459;50.254;19.014;2023-02-04T00:18:20;6.93;;;3.22;;
18659;SDS011;9459;50.254;19.014;2023-02-04T00:20:49;9.63;;;3.50;;
18659;SDS011;9459;50.254;19.014;2023-02-04T00:23:17;8.95;;;3.17;;
18659;SDS011;9459;50.254;19.014;2023-02-04T00:25:46;9.65;;;3.75;;
18659;SDS011;9459;50.254;19.014;2023-02-04T00:28:14;5.40;;;2.72;;
18659;SDS011;9459;50.254;19.014;2023-02-04T00:30:44;9.43;;;3.58;;
18659;SDS011;9459;50.254;19.014;2023-02-04T00:33:13;8.40;;;3.08;;
18659;SDS011;9459;50.254;19.014;2023-02-04T00:35:42;8.27;;;3.10;;
18659;SDS011;9459;50.254;19.014;2023-02-04T00:38:11;8.77;;;3.40;;
18659;SDS011;9459;50.254;19.014;2023-02-04T00:40:39;7.93;;;2.67;;
18659;SDS011;9459;50.254;19.014;2023-02-04T00:43:07;7.28;;;2.53;;
18659;SDS011;9459;50.254;19.014;2023-02-04T00:45:36;5.85;;;2.50;;
18659;SDS011;9459;50.254;19.014;2023-02-04T00:48:06;6.45;;;2.30;;
18659;SDS011;9459;50.254;19.014;2023-02-04T00:50:34;6.55;;;2.55;;
18659;SDS011;9459;50.254;19.014;2023-02-04T00:53:05;9.60;;;4.07;;
18659;SDS011;9459;50.254;19.014;2023-02-04T00:55:34;6.32;;;2.42;;
18659;SDS011;9459;50.254;19.014;2023-02-04T00:58:02;4.03;;;1.90;;
18659;SDS011;9459;50.254;19.014;2023-02-04T01:00:31;4.13;;;1.95;;
18659;SDS011;9459;50.254;19.014;2023-02-04T01:03:00;5.18;;;2.10;;
18659;SDS011;9459;50.254;19.014;2023-02-04T01:05:30;5.40;;;2.47;;
18659;SDS011;9459;50.254;19.014;2023-02-04T01:07:58;6.13;;;1.70;;
18659;SDS011;9459;50.254;19.014;2023-02-04T01:10:27;3.38;;;1.50;;
18659;SDS011;9459;50.254;19.014;2023-02-04T01:12:57;5.50;;;1.90;;
18659;SDS011;9459;50.254;19.014;2023-02-04T01:15:25;4.88;;;2.20;;
18659;SDS011;9459;50.254;19.014;2023-02-04T01:17:54;5.00;;;1.90;;
18659;SDS011;9459;50.254;19.014;2023-02-04T01:20:22;4.80;;;2.28;;
18659;SDS011;9459;50.254;19.014;2023-02-04T01:22:52;4.53;;;1.98;;
18659;SDS011;9459;50.254;19.014;2023-02-04T01:25:21;3.33;;;1.60;;
18659;SDS011;9459;50.254;19.014;2023-02-04T01:27:50;4.80;;;1.92;;
18659;SDS011;9459;50.254;19.014;2023-02-04T01:30:18;4.63;;;1.88;;
18659;SDS011;9459;50.254;19.014;2023-02-04T01:32:47;4.32;;;2.33;;
18659;SDS011;9459;50.254;19.014;2023-02-04T01:35:16;5.22;;;2.00;;
18659;SDS011;9459;50.254;19.014;2023-02-04T01:37:44;4.60;;;1.50;;
18659;SDS011;9459;50.254;19.014;2023-02-04T01:40:14;5.80;;;1.90;;
18659;SDS011;9459;50.254;19.014;2023-02-04T01:42:42;3.95;;;1.98;;
18659;SDS011;9459;50.254;19.014;2023-02-04T01:45:11;3.95;;;1.73;;
18659;SDS011;9459;50.254;19.014;2023-02-04T01:47:40;4.13;;;1.67;;
18659;SDS011;9459;50.254;19.014;2023-02-04T01:50:09;4.35;;;1.65;;
18659;SDS011;9459;50.254;19.014;2023-02-04T01:52:38;5.60;;;1.85;;
18659;SDS011;9459;50.254;19.014;2023-02-04T01:55:10;3.58;;;2.17;;
18659;SDS011;9459;50.254;19.014;2023-02-04T01:57:42;3.30;;;1.92;;
18659;SDS011;9459;50.254;19.014;2023-02-04T02:00:13;4.78;;;2.03;;
18659;SDS011;9459;50.254;19.014;2023-02-04T02:02:44;4.25;;;1.83;;
18659;SDS011;9459;50.254;19.014;2023-02-04T02:07:46;1.80;;;1.27;;
18659;SDS011;9459;50.254;19.014;2023-02-04T02:10:15;6.53;;;2.05;;
18659;SDS011;9459;50.254;19.014;2023-02-04T02:12:46;3.85;;;1.63;;
18659;SDS011;9459;50.254;19.014;2023-02-04T02:15:15;2.92;;;1.42;;
18659;SDS011;9459;50.254;19.014;2023-02-04T02:17:44;4.10;;;1.63;;
18659;SDS011;9459;50.254;19.014;2023-02-04T02:20:13;6.80;;;2.60;;
18659;SDS011;9459;50.254;19.014;2023-02-04T02:22:46;4.45;;;2.15;;
18659;SDS011;9459;50.254;19.014;2023-02-04T02:25:21;7.53;;;3.83;;
18659;SDS011;9459;50.254;19.014;2023-02-04T02:27:49;3.30;;;1.48;;
18659;SDS011;9459;50.254;19.014;2023-02-04T02:30:19;2.78;;;1.25;;
18659;SDS011;9459;50.254;19.014;2023-02-04T02:32:47;4.60;;;1.70;;
18659;SDS011;9459;50.254;19.014;2023-02-04T02:35:18;3.85;;;1.90;;
18659;SDS011;9459;50.254;19.014;2023-02-04T02:37:46;3.63;;;2.40;;
18659;SDS011;9459;50.254;19.014;2023-02-04T02:40:15;3.70;;;2.05;;
18659;SDS011;9459;50.254;19.014;2023-02-04T02:42:46;4.70;;;2.30;;
18659;SDS011;9459;50.254;19.014;2023-02-04T02:45:26;4.75;;;2.40;;
18659;SDS011;9459;50.254;19.014;2023-02-04T02:47:56;3.40;;;1.92;;
18659;SDS011;9459;50.254;19.014;2023-02-04T02:50:26;2.25;;;1.42;;
18659;SDS011;9459;50.254;19.014;2023-02-04T02:52:57;3.20;;;1.52;;
18659;SDS011;9459;50.254;19.014;2023-02-04T02:55:26;1.92;;;1.40;;
18659;SDS011;9459;50.254;19.014;2023-02-04T02:57:56;3.60;;;1.20;;
18659;SDS011;9459;50.254;19.014;2023-02-04T03:00:26;2.38;;;1.08;;
18659;SDS011;9459;50.254;19.014;2023-02-04T03:05:27;5.72;;;1.73;;
18659;SDS011;9459;50.254;19.014;2023-02-04T03:07:57;5.03;;;3.13;;
18659;SDS011;9459;50.254;19.014;2023-02-04T03:10:26;4.80;;;3.10;;
18659;SDS011;9459;50.254;19.014;2023-02-04T03:12:56;6.00;;;3.83;;
18659;SDS011;9459;50.254;19.014;2023-02-04T03:15:26;9.35;;;4.85;;
18659;SDS011;9459;50.254;19.014;2023-02-04T03:17:55;6.75;;;4.10;;
18659;SDS011;9459;50.254;19.014;2023-02-04T03:20:24;4.95;;;3.08;;
18659;SDS011;9459;50.254;19.014;2023-02-04T03:22:54;5.25;;;2.80;;
18659;SDS011;9459;50.254;19.014;2023-02-04T03:25:25;4.75;;;2.13;;
18659;SDS011;9459;50.254;19.014;2023-02-04T03:27:54;5.50;;;2.63;;
18659;SDS011;9459;50.254;19.014;2023-02-04T03:30:26;5.30;;;2.88;;
18659;SDS011;9459;50.254;19.014;2023-02-04T03:32:55;3.60;;;2.28;;
18659;SDS011;9459;50.254;19.014;2023-02-04T03:35:24;5.40;;;2.80;;
18659;SDS011;9459;50.254;19.014;2023-02-04T03:37:53;5.40;;;2.58;;
18659;SDS011;9459;50.254;19.014;2023-02-04T03:40:21;7.47;;;2.95;;
18659;SDS011;9459;50.254;19.014;2023-02-04T03:42:50;4.45;;;2.50;;
18659;SDS011;9459;50.254;19.014;2023-02-04T03:45:20;4.43;;;2.60;;
18659;SDS011;9459;50.254;19.014;2023-02-04T03:47:48;5.35;;;2.97;;
18659;SDS011;9459;50.254;19.014;2023-02-04T03:50:17;3.85;;;2.65;;
18659;SDS011;9459;50.254;19.014;2023-02-04T03:52:45;4.25;;;3.03;;
18659;SDS011;9459;50.254;19.014;2023-02-04T03:55:15;3.00;;;1.77;;
18659;SDS011;9459;50.254;19.014;2023-02-04T03:57:43;2.55;;;1.70;;
18659;SDS011;9459;50.254;19.014;2023-02-04T04:00:12;2.60;;;2.05;;
18659;SDS011;9459;50.254;19.014;2023-02-04T04:02:42;5.20;;;2.15;;
18659;SDS011;9459;50.254;19.014;2023-02-04T04:05:11;3.45;;;2.05;;
18659;SDS011;9459;50.254;19.014;2023-02-04T04:07:39;3.10;;;2.40;;
18659;SDS011;9459;50.254;19.014;2023-02-04T04:10:08;4.93;;;3.10;;
18659;SDS011;9459;50.254;19.014;2023-02-04T04:12:36;4.85;;;2.97;;
18659;SDS011;9459;50.254;19.014;2023-02-04T04:15:05;5.30;;;3.42;;
18659;SDS011;9459;50.254;19.014;2023-02-04T04:17:34;6.18;;;4.00;;
18659;SDS011;9459;50.254;19.014;2023-02-04T04:20:05;7.65;;;4.30;;
18659;SDS011;9459;50.254;19.014;2023-02-04T04:22:34;5.90;;;4.20;;
18659;SDS011;9459;50.254;19.014;2023-02-04T04:25:02;7.40;;;4.45;;
18659;SDS011;9459;50.254;19.014;2023-02-04T04:27:31;6.45;;;4.72;;
18659;SDS011;9459;50.254;19.014;2023-02-04T04:30:00;8.73;;;5.38;;
18659;SDS011;9459;50.254;19.014;2023-02-04T04:32:28;7.55;;;5.75;;
18659;SDS011;9459;50.254;19.014;2023-02-04T04:34:57;11.15;;;5.57;;
18659;SDS011;9459;50.254;19.014;2023-02-04T04:37:27;12.25;;;5.50;;
18659;SDS011;9459;50.254;19.014;2023-02-04T04:39:56;5.93;;;4.47;;
18659;SDS011;9459;50.254;19.014;2023-02-04T04:42:26;7.07;;;4.93;;
18659;SDS011;9459;50.254;19.014;2023-02-04T04:44:55;7.72;;;4.70;;
18659;SDS011;9459;50.254;19.014;2023-02-04T04:47:23;9.63;;;5.13;;
18659;SDS011;9459;50.254;19.014;2023-02-04T04:49:51;6.95;;;4.78;;
18659;SDS011;9459;50.254;19.014;2023-02-04T04:52:21;9.52;;;5.88;;
18659;SDS011;9459;50.254;19.014;2023-02-04T04:54:50;7.35;;;5.30;;
18659;SDS011;9459;50.254;19.014;2023-02-04T04:57:19;8.60;;;5.18;;
18659;SDS011;9459;50.254;19.014;2023-02-04T04:59:48;8.48;;;4.93;;
18659;SDS011;9459;50.254;19.014;2023-02-04T05:02:16;6.47;;;4.82;;
18659;SDS011;9459;50.254;19.014;2023-02-04T05:04:45;6.95;;;4.88;;
18659;SDS011;9459;50.254;19.014;2023-02-04T05:07:13;7.50;;;5.35;;
18659;SDS011;9459;50.254;19.014;2023-02-04T05:09:42;7.43;;;5.18;;
18659;SDS011;9459;50.254;19.014;2023-02-04T05:12:12;9.73;;;5.55;;
18659;SDS011;9459;50.254;19.014;2023-02-04T05:14:41;8.70;;;5.25;;
18659;SDS011;9459;50.254;19.014;2023-02-04T05:17:09;7.38;;;5.40;;
18659;SDS011;9459;50.254;19.014;2023-02-04T05:19:38;6.40;;;4.20;;
18659;SDS011;9459;50.254;19.014;2023-02-04T05:22:07;5.72;;;4.18;;
18659;SDS011;9459;50.254;19.014;2023-02-04T05:24:36;5.85;;;4.05;;
18659;SDS011;9459;50.254;19.014;2023-02-04T05:27:04;5.30;;;3.78;;
18659;SDS011;9459;50.254;19.014;2023-02-04T05:29:34;5.07;;;3.53;;
18659;SDS011;9459;50.254;19.014;2023-02-04T05:32:03;6.20;;;3.70;;
18659;SDS011;9459;50.254;19.014;2023-02-04T05:34:32;4.22;;;3.10;;
18659;SDS011;9459;50.254;19.014;2023-02-04T05:37:00;5.63;;;3.65;;
18659;SDS011;9459;50.254;19.014;2023-02-04T05:39:28;4.43;;;3.13;;
18659;SDS011;9459;50.254;19.014;2023-02-04T05:41:57;4.68;;;3.45;;
18659;SDS011;9459;50.254;19.014;2023-02-04T05:44:26;5.95;;;3.95;;
18659;SDS011;9459;50.254;19.014;2023-02-04T05:46:57;6.13;;;4.03;;
18659;SDS011;9459;50.254;19.014;2023-02-04T05:49:25;4.00;;;3.50;;
18659;SDS011;9459;50.254;19.014;2023-02-04T05:51:54;5.25;;;3.55;;
18659;SDS011;9459;50.254;19.014;2023-02-04T05:54:23;6.50;;;4.45;;
18659;SDS011;9459;50.254;19.014;2023-02-04T05:56:51;5.85;;;3.92;;
18659;SDS011;9459;50.254;19.014;2023-02-04T05:59:20;7.30;;;4.60;;
18659;SDS011;9459;50.254;19.014;2023-02-04T06:01:49;6.50;;;4.05;;
18659;SDS011;9459;50.254;19.014;2023-02-04T06:04:19;5.38;;;4.05;;
18659;SDS011;9459;50.254;19.014;2023-02-04T06:06:47;6.60;;;4.32;;
18659;SDS011;9459;50.254;19.014;2023-02-04T06:09:16;5.82;;;4.18;;
18659;SDS011;9459;50.254;19.014;2023-02-04T06:11:44;6.72;;;4.60;;
18659;SDS011;9459;50.254;19.014;2023-02-04T06:14:13;6.85;;;4.95;;
18659;SDS011;9459;50.254;19.014;2023-02-04T06:16:41;5.85;;;4.30;;
18659;SDS011;9459;50.254;19.014;2023-02-04T06:19:10;8.13;;;5.63;;
18659;SDS011;9459;50.254;19.014;2023-02-04T06:21:41;8.82;;;5.18;;
18659;SDS011;9459;50.254;19.014;2023-02-04T06:24:09;8.70;;;5.53;;
18659;SDS011;9459;50.254;19.014;2023-02-04T06:26:38;7.93;;;5.50;;
18659;SDS011;9459;50.254;19.014;2023-02-04T06:29:06;7.13;;;5.53;;
18659;SDS011;9459;50.254;19.014;2023-02-04T06:31:35;7.97;;;5.63;;
18659;SDS011;9459;50.254;19.014;2023-02-04T06:34:05;12.05;;;7.82;;
18659;SDS011;9459;50.254;19.014;2023-02-04T06:36:33;14.60;;;10.40;;
18659;SDS011;9459;50.254;19.014;2023-02-04T06:39:03;13.60;;;9.50;;
18659;SDS011;9459;50.254;19.014;2023-02-04T06:41:32;14.15;;;8.55;;
18659;SDS011;9459;50.254;19.014;2023-02-04T06:44:01;12.35;;;8.93;;
18659;SDS011;9459;50.254;19.014;2023-02-04T06:46:29;10.43;;;7.07;;
18659;SDS011;9459;50.254;19.014;2023-02-04T06:48:59;10.35;;;6.78;;
18659;SDS011;9459;50.254;19.014;2023-02-04T06:51:27;8.38;;;6.22;;
18659;SDS011;9459;50.254;19.014;2023-02-04T06:53:56;8.60;;;6.32;;
18659;SDS011;9459;50.254;19.014;2023-02-04T06:56:26;11.18;;;7.40;;
18659;SDS011;9459;50.254;19.014;2023-02-04T06:58:56;11.63;;;7.18;;
18659;SDS011;9459;50.254;19.014;2023-02-04T07:01:24;11.65;;;7.32;;
18659;SDS011;9459;50.254;19.014;2023-02-04T07:03:53;11.27;;;7.63;;
18659;SDS011;9459;50.254;19.014;2023-02-04T07:06:22;11.30;;;7.30;;
18659;SDS011;9459;50.254;19.014;2023-02-04T07:08:50;11.88;;;6.95;;
18659;SDS011;9459;50.254;19.014;2023-02-04T07:11:19;12.70;;;7.07;;
18659;SDS011;9459;50.254;19.014;2023-02-04T07:13:49;11.40;;;6.70;;
18659;SDS011;9459;50.254;19.014;2023-02-04T07:16:17;10.10;;;6.50;;
18659;SDS011;9459;50.254;19.014;2023-02-04T07:18:46;10.95;;;7.22;;
18659;SDS011;9459;50.254;19.014;2023-02-04T07:21:14;11.55;;;7.05;;
18659;SDS011;9459;50.254;19.014;2023-02-04T07:23:44;10.80;;;6.43;;
18659;SDS011;9459;50.254;19.014;2023-02-04T07:26:12;9.27;;;6.15;;
18659;SDS011;9459;50.254;19.014;2023-02-04T07:28:41;10.20;;;6.07;;
18659;SDS011;9459;50.254;19.014;2023-02-04T07:31:12;10.55;;;7.05;;
18659;SDS011;9459;50.254;19.014;2023-02-04T07:33:40;11.20;;;6.15;;
18659;SDS011;9459;50.254;19.014;2023-02-04T07:36:09;9.50;;;6.60;;
18659;SDS011;9459;50.254;19.014;2023-02-04T07:38:40;12.02;;;7.50;;
18659;SDS011;9459;50.254;19.014;2023-02-04T07:41:08;9.85;;;6.15;;
18659;SDS011;9459;50.254;19.014;2023-02-04T07:43:37;8.05;;;5.65;;
18659;SDS011;9459;50.254;19.014;2023-02-04T07:46:05;8.57;;;5.70;;
18659;SDS011;9459;50.254;19.014;2023-02-04T07:48:35;11.05;;;6.63;;
18659;SDS011;9459;50.254;19.014;2023-02-04T07:51:04;10.45;;;6.10;;
18659;SDS011;9459;50.254;19.014;2023-02-04T07:53:33;9.75;;;5.75;;
18659;SDS011;9459;50.254;19.014;2023-02-04T07:56:01;8.30;;;5.93;;
18659;SDS011;9459;50.254;19.014;2023-02-04T07:58:30;8.50;;;6.25;;
18659;SDS011;9459;50.254;19.014;2023-02-04T08:00:59;11.52;;;6.47;;
18659;SDS011;9459;50.254;19.014;2023-02-04T08:03:28;9.93;;;7.18;;
18659;SDS011;9459;50.254;19.014;2023-02-04T08:05:59;10.00;;;6.22;;
18659;SDS011;9459;50.254;19.014;2023-02-04T08:08:28;10.32;;;6.15;;
18659;SDS011;9459;50.254;19.014;2023-02-04T08:10:57;9.80;;;6.45;;
18659;SDS011;9459;50.254;19.014;2023-02-04T08:13:25;10.45;;;6.50;;
18659;SDS011;9459;50.254;19.014;2023-02-04T08:15:54;12.52;;;7.18;;
18659;SDS011;9459;50.254;19.014;2023-02-04T08:18:22;12.00;;;7.05;;
18659;SDS011;9459;50.254;19.014;2023-02-04T08:20:51;10.75;;;7.68;;
18659;SDS011;9459;50.254;19.014;2023-02-04T08:23:21;12.27;;;7.68;;
18659;SDS011;9459;50.254;19.014;2023-02-04T08:25:50;12.90;;;8.05;;
18659;SDS011;9459;50.254;19.014;2023-02-04T08:28:19;15.07;;;8.20;;
18659;SDS011;9459;50.254;19.014;2023-02-04T08:30:47;12.13;;;7.93;;
18659;SDS011;9459;50.254;19.014;2023-02-04T08:33:16;14.65;;;9.18;;
18659;SDS011;9459;50.254;19.014;2023-02-04T08:35:45;11.40;;;7.00;;
18659;SDS011;9459;50.254;19.014;2023-02-04T08:38:13;15.60;;;9.18;;
18659;SDS011;9459;50.254;19.014;2023-02-04T08:40:43;12.35;;;7.72;;
18659;SDS011;9459;50.254;19.014;2023-02-04T08:43:12;14.63;;;8.95;;
18659;SDS011;9459;50.254;19.014;2023-02-04T08:45:40;12.00;;;7.35;;
18659;SDS011;9459;50.254;19.014;2023-02-04T08:48:09;12.82;;;7.40;;
18659;SDS011;9459;50.254;19.014;2023-02-04T08:50:38;9.68;;;7.00;;
18659;SDS011;9459;50.254;19.014;2023-02-04T08:53:06;11.02;;;6.82;;
18659;SDS011;9459;50.254;19.014;2023-02-04T08:55:35;11.85;;;7.28;;
18659;SDS011;9459;50.254;19.014;2023-02-04T08:58:05;42.90;;;17.13;;
18659;SDS011;9459;50.254;19.014;2023-02-04T09:00:33;47.85;;;20.60;;
18659;SDS011;9459;50.254;19.014;2023-02-04T09:03:03;65.05;;;26.13;;
18659;SDS011;9459;50.254;19.014;2023-02-04T09:05:32;38.83;;;18.60;;
18659;SDS011;9459;50.254;19.014;2023-02-04T09:08:01;18.85;;;11.20;;
18659;SDS011;9459;50.254;19.014;2023-02-04T09:10:29;12.75;;;8.60;;
18659;SDS011;9459;50.254;19.014;2023-02-04T09:12:59;15.20;;;8.88;;
18659;SDS011;9459;50.254;19.014;2023-02-04T09:15:29;13.60;;;9.23;;
18659;SDS011;9459;50.254;19.014;2023-02-04T09:17:58;13.63;;;9.48;;
18659;SDS011;9459;50.254;19.014;2023-02-04T09:20:37;14.70;;;9.40;;
18659;SDS011;9459;50.254;19.014;2023-02-04T09:23:05;15.02;;;9.80;;
18659;SDS011;9459;50.254;19.014;2023-02-04T09:25:45;21.13;;;12.05;;
18659;SDS011;9459;50.254;19.014;2023-02-04T09:30:48;15.13;;;9.32;;
18659;SDS011;9459;50.254;19.014;2023-02-04T09:33:17;17.08;;;10.23;;
18659;SDS011;9459;50.254;19.014;2023-02-04T09:35:46;11.82;;;8.23;;
18659;SDS011;9459;50.254;19.014;2023-02-04T09:38:16;13.77;;;9.30;;
18659;SDS011;9459;50.254;19.014;2023-02-04T09:40:45;14.68;;;9.80;;
18659;SDS011;9459;50.254;19.014;2023-02-04T09:43:17;13.00;;;8.65;;
18659;SDS011;9459;50.254;19.014;2023-02-04T09:45:52;13.15;;;8.88;;
18659;SDS011;9459;50.254;19.014;2023-02-04T09:48:21;10.68;;;7.50;;
18659;SDS011;9459;50.254;19.014;2023-02-04T09:51:01;10.32;;;6.47;;
18659;SDS011;9459;50.254;19.014;2023-02-04T09:53:31;7.45;;;6.13;;
18659;SDS011;9459;50.254;19.014;2023-02-04T09:56:01;7.40;;;5.90;;
18659;SDS011;9459;50.254;19.014;2023-02-04T09:58:32;8.55;;;6.20;;
18659;SDS011;9459;50.254;19.014;2023-02-04T10:01:04;10.40;;;6.28;;
18659;SDS011;9459;50.254;19.014;2023-02-04T10:03:38;10.13;;;5.50;;
18659;SDS011;9459;50.254;19.014;2023-02-04T10:06:13;9.25;;;5.65;;
18659;SDS011;9459;50.254;19.014;2023-02-04T10:08:42;8.10;;;4.57;;
18659;SDS011;9459;50.254;19.014;2023-02-04T10:11:11;6.82;;;4.85;;
18659;SDS011;9459;50.254;19.014;2023-02-04T10:13:41;6.32;;;4.75;;
18659;SDS011;9459;50.254;19.014;2023-02-04T10:16:13;7.75;;;5.55;;
18659;SDS011;9459;50.254;19.014;2023-02-04T10:18:43;7.03;;;5.10;;
18659;SDS011;9459;50.254;19.014;2023-02-04T10:21:14;7.35;;;4.50;;
18659;SDS011;9459;50.254;19.014;2023-02-04T10:23:45;4.95;;;3.20;;
18659;SDS011;9459;50.254;19.014;2023-02-04T10:26:15;6.78;;;4.00;;
18659;SDS011;9459;50.254;19.014;2023-02-04T10:28:43;8.18;;;4.72;;
18659;SDS011;9459;50.254;19.014;2023-02-04T10:31:30;7.80;;;4.15;;
18659;SDS011;9459;50.254;19.014;2023-02-04T10:34:05;7.05;;;4.13;;
18659;SDS011;9459;50.254;19.014;2023-02-04T10:36:37;7.05;;;3.92;;
18659;SDS011;9459;50.254;19.014;2023-02-04T10:39:09;5.93;;;3.83;;
18659;SDS011;9459;50.254;19.014;2023-02-04T10:41:43;6.15;;;4.20;;
18659;SDS011;9459;50.254;19.014;2023-02-04T10:44:16;5.80;;;3.70;;
18659;SDS011;9459;50.254;19.014;2023-02-04T10:46:47;5.88;;;3.90;;
18659;SDS011;9459;50.254;19.014;2023-02-04T10:49:18;5.05;;;3.10;;
18659;SDS011;9459;50.254;19.014;2023-02-04T10:51:49;5.83;;;3.83;;
18659;SDS011;9459;50.254;19.014;2023-02-04T10:54:19;7.95;;;4.00;;
18659;SDS011;9459;50.254;19.014;2023-02-04T10:57:04;4.55;;;3.10;;
18659;SDS011;9459;50.254;19.014;2023-02-04T10:59:36;6.00;;;3.67;;
18659;SDS011;9459;50.254;19.014;2023-02-04T11:02:15;5.72;;;3.90;;
18659;SDS011;9459;50.254;19.014;2023-02-04T11:04:59;5.70;;;4.18;;
18659;SDS011;9459;50.254;19.014;2023-02-04T11:07:28;6.13;;;4.50;;
18659;SDS011;9459;50.254;19.014;2023-02-04T11:09:57;6.13;;;4.63;;
18659;SDS011;9459;50.254;19.014;2023-02-04T11:12:35;6.80;;;4.50;;
18659;SDS011;9459;50.254;19.014;2023-02-04T11:15:06;6.88;;;5.20;;
18659;SDS011;9459;50.254;19.014;2023-02-04T11:17:59;8.40;;;4.95;;
18659;SDS011;9459;50.254;19.014;2023-02-04T11:20:31;7.45;;;4.70;;
18659;SDS011;9459;50.254;19.014;2023-02-04T11:23:12;8.93;;;4.63;;
18659;SDS011;9459;50.254;19.014;2023-02-04T11:25:42;15.88;;;8.75;;
18659;SDS011;9459;50.254;19.014;2023-02-04T11:28:14;10.88;;;6.95;;
18659;SDS011;9459;50.254;19.014;2023-02-04T11:30:43;14.77;;;9.20;;
18659;SDS011;9459;50.254;19.014;2023-02-04T11:33:23;7.53;;;4.85;;
18659;SDS011;9459;50.254;19.014;2023-02-04T11:36:01;11.32;;;6.57;;
18659;SDS011;9459;50.254;19.014;2023-02-04T11:38:30;8.80;;;5.47;;
18659;SDS011;9459;50.254;19.014;2023-02-04T11:40:59;8.63;;;4.78;;
18659;SDS011;9459;50.254;19.014;2023-02-04T11:43:32;9.52;;;5.60;;
18659;SDS011;9459;50.254;19.014;2023-02-04T11:46:02;7.88;;;5.22;;
18659;SDS011;9459;50.254;19.014;2023-02-04T11:48:34;8.88;;;4.57;;
18659;SDS011;9459;50.254;19.014;2023-02-04T11:51:09;5.88;;;3.78;;
18659;SDS011;9459;50.254;19.014;2023-02-04T11:53:39;5.65;;;3.75;;
18659;SDS011;9459;50.254;19.014;2023-02-04T11:56:14;10.18;;;5.13;;
18659;SDS011;9459;50.254;19.014;2023-02-04T11:58:44;5.47;;;3.10;;
18659;SDS011;9459;50.254;19.014;2023-02-04T12:01:17;6.75;;;3.53;;
18659;SDS011;9459;50.254;19.014;2023-02-04T12:03:49;5.82;;;3.63;;
18659;SDS011;9459;50.254;19.014;2023-02-04T12:06:22;8.30;;;3.58;;
18659;SDS011;9459;50.254;19.014;2023-02-04T12:08:51;6.63;;;3.65;;
18659;SDS011;9459;50.254;19.014;2023-02-04T12:11:24;5.30;;;3.58;;
18659;SDS011;9459;50.254;19.014;2023-02-04T12:13:56;6.75;;;3.92;;
18659;SDS011;9459;50.254;19.014;2023-02-04T12:16:25;6.07;;;3.22;;
18659;SDS011;9459;50.254;19.014;2023-02-04T12:18:56;5.72;;;3.28;;
18659;SDS011;9459;50.254;19.014;2023-02-04T12:21:25;6.95;;;3.47;;
18659;SDS011;9459;50.254;19.014;2023-02-04T12:23:53;4.10;;;2.67;;
18659;SDS011;9459;50.254;19.014;2023-02-04T12:26:22;5.07;;;2.88;;
18659;SDS011;9459;50.254;19.014;2023-02-04T12:28:50;6.55;;;3.17;;
18659;SDS011;9459;50.254;19.014;2023-02-04T12:31:19;6.03;;;2.92;;
18659;SDS011;9459;50.254;19.014;2023-02-04T12:33:48;6.47;;;2.95;;
18659;SDS011;9459;50.254;19.014;2023-02-04T12:36:18;4.68;;;3.13;;
18659;SDS011;9459;50.254;19.014;2023-02-04T12:38:46;6.65;;;3.25;;
18659;SDS011;9459;50.254;19.014;2023-02-04T12:41:15;4.70;;;2.95;;
18659;SDS011;9459;50.254;19.014;2023-02-04T12:43:45;6.27;;;2.97;;
18659;SDS011;9459;50.254;19.014;2023-02-04T12:48:45;8.10;;;3.80;;
18659;SDS011;9459;50.254;19.014;2023-02-04T12:51:18;6.65;;;3.22;;
18659;SDS011;9459;50.254;19.014;2023-02-04T12:53:46;6.22;;;3.28;;
18659;SDS011;9459;50.254;19.014;2023-02-04T12:56:15;7.55;;;3.58;;
18659;SDS011;9459;50.254;19.014;2023-02-04T12:58:46;3.95;;;2.75;;
18659;SDS011;9459;50.254;19.014;2023-02-04T13:01:15;8.85;;;4.57;;
18659;SDS011;9459;50.254;19.014;2023-02-04T13:03:43;7.63;;;4.00;;
18659;SDS011;9459;50.254;19.014;2023-02-04T13:06:12;7.90;;;4.45;;
18659;SDS011;9459;50.254;19.014;2023-02-04T13:08:42;8.80;;;3.80;;
18659;SDS011;9459;50.254;19.014;2023-02-04T13:11:10;10.18;;;4.80;;
18659;SDS011;9459;50.254;19.014;2023-02-04T13:13:39;7.45;;;3.65;;
18659;SDS011;9459;50.254;19.014;2023-02-04T13:16:07;7.18;;;4.10;;
18659;SDS011;9459;50.254;19.014;2023-02-04T13:18:36;9.75;;;4.30;;
18659;SDS011;9459;50.254;19.014;2023-02-04T13:21:05;8.48;;;3.80;;
18659;SDS011;9459;50.254;19.014;2023-02-04T13:23:33;9.45;;;4.38;;
18659;SDS011;9459;50.254;19.014;2023-02-04T13:26:03;18.77;;;8.48;;
18659;SDS011;9459;50.254;19.014;2023-02-04T13:28:33;8.98;;;5.10;;
18659;SDS011;9459;50.254;19.014;2023-02-04T13:31:02;9.68;;;5.03;;
18659;SDS011;9459;50.254;19.014;2023-02-04T13:33:32;10.52;;;5.22;;
18659;SDS011;9459;50.254;19.014;2023-02-04T13:36:01;13.95;;;6.55;;
18659;SDS011;9459;50.254;19.014;2023-02-04T13:38:29;16.48;;;6.50;;
18659;SDS011;9459;50.254;19.014;2023-02-04T13:40:58;16.98;;;7.45;;
18659;SDS011;9459;50.254;19.014;2023-02-04T13:43:27;20.08;;;10.45;;
18659;SDS011;9459;50.254;19.014;2023-02-04T13:45:56;8.93;;;4.45;;
18659;SDS011;9459;50.254;19.014;2023-02-04T13:48:25;8.90;;;3.97;;
18659;SDS011;9459;50.254;19.014;2023-02-04T13:50:54;7.30;;;3.17;;
18659;SDS011;9459;50.254;19.014;2023-02-04T13:53:22;8.77;;;3.60;;
18659;SDS011;9459;50.254;19.014;2023-02-04T13:55:52;5.88;;;2.65;;
18659;SDS011;9459;50.254;19.014;2023-02-04T13:58:21;7.50;;;3.45;;
18659;SDS011;9459;50.254;19.014;2023-02-04T14:00:51;9.07;;;4.20;;
18659;SDS011;9459;50.254;19.014;2023-02-04T14:03:23;9.45;;;5.13;;
18659;SDS011;9459;50.254;19.014;2023-02-04T14:05:52;8.85;;;4.40;;
18659;SDS011;9459;50.254;19.014;2023-02-04T14:08:21;7.82;;;3.45;;
18659;SDS011;9459;50.254;19.014;2023-02-04T14:10:50;20.58;;;8.43;;
18659;SDS011;9459;50.254;19.014;2023-02-04T14:13:19;12.43;;;5.85;;
18659;SDS011;9459;50.254;19.014;2023-02-04T14:15:47;16.33;;;8.50;;
18659;SDS011;9459;50.254;19.014;2023-02-04T14:18:17;15.73;;;7.57;;
18659;SDS011;9459;50.254;19.014;2023-02-04T14:20:46;20.50;;;8.30;;
18659;SDS011;9459;50.254;19.014;2023-02-04T14:23:16;16.92;;;8.27;;
18659;SDS011;9459;50.254;19.014;2023-02-04T14:25:44;13.40;;;8.27;;
18659;SDS011;9459;50.254;19.014;2023-02-04T14:28:13;20.25;;;10.35;;
18659;SDS011;9459;50.254;19.014;2023-02-04T14:30:42;16.58;;;8.88;;
18659;SDS011;9459;50.254;19.014;2023-02-04T14:33:10;15.10;;;7.97;;
18659;SDS011;9459;50.254;19.014;2023-02-04T14:35:42;15.68;;;7.63;;
18659;SDS011;9459;50.254;19.014;2023-02-04T14:38:11;13.65;;;6.50;;
18659;SDS011;9459;50.254;19.014;2023-02-04T14:40:41;18.13;;;10.00;;
18659;SDS011;9459;50.254;19.014;2023-02-04T14:43:11;12.20;;;7.03;;
18659;SDS011;9459;50.254;19.014;2023-02-04T14:45:40;14.10;;;7.47;;
18659;SDS011;9459;50.254;19.014;2023-02-04T14:48:08;15.55;;;8.32;;
18659;SDS011;9459;50.254;19.014;2023-02-04T14:50:37;14.90;;;7.40;;
18659;SDS011;9459;50.254;19.014;2023-02-04T14:53:06;12.18;;;5.82;;
18659;SDS011;9459;50.254;19.014;2023-02-04T14:55:35;14.32;;;7.47;;
18659;SDS011;9459;50.254;19.014;2023-02-04T14:58:03;25.63;;;12.05;;
18659;SDS011;9459;50.254;19.014;2023-02-04T15:00:32;26.75;;;12.93;;
18659;SDS011;9459;50.254;19.014;2023-02-04T15:03:02;18.80;;;9.52;;
18659;SDS011;9459;50.254;19.014;2023-02-04T15:05:31;14.90;;;8.63;;
18659;SDS011;9459;50.254;19.014;2023-02-04T15:07:59;16.13;;;8.90;;